Airfield :







YOU CAN JOIN US ON...

 
LOGIN :

Register | Disclaimer

   EN    FR    IT 

 









Legend :    VFR   Marginal VFR   IFR   Intensive IFR   Very Intensive IFR
Visi :
Ceiling :
>= 8 km
>= 3000ft
5 to 8 km
1000 to 3000 ft
1500m to 5 km
500 to 1000 ft
800 to 1500m
200 to 500 ft
< 800m
< 200 ft
Symbols :   Thunderstorms  Fog  Heavy snow  Heavy precipitations  Wind > 20 kt







- Airport Elevation : 171 ft
- IATA code : KEF


BIKF - Keflavik International

CURRENT METAR :
  • 201300Z 17013KT 9999 VCSH SCT012TCU 05/04 Q0986

EXPIRED METARs :
  • 201230Z 17016KT 8000 -DZ SCT005 BKN014TCU 05/05 Q0986
  • 201200Z 18014KT 8000 -DZ SCT005 BKN014TCU 05/05 Q0985
  • 201130Z 17014KT 9000 -DZ FEW007 SCT013TCU BKN018 05/05 Q0985
  • 201100Z 17014KT 6000 -DZ FEW009 BKN015 05/04 Q0984
  • 201030Z 17014KT 9999 VCSH FEW009 SCT015 BKN020 05/04 Q0983

TAF AMD TAF BIKF
Valid from the 20 at 12:00 until the 21 at 12:00 UTC


201235Z 2012/2112 19015KT 9999 -RA SCT010 BKN020 TX07/2106Z TN03/2019Z
TEMPO 2012/2016 5000 DZ SCT005 BKN012
BECMG 2018/2021 13025G35KT
BECMG 2100/2103 12035G45KT 5000 RA BKN010 OVC015
BECMG 2106/2109 13025G35KT
BECMG 2109/2112 9999 BKN025 OVC035
No reported NOTAMs for that airfield.



MET'MAP, your aeronautical weather chart ! - Copyright ORBIFLY December 2007 - Disclaimer

ORBIFLY MET'MAP TEAM :

Programming & Development : Alexandra Zaïnal
Concept & Development : Baudouin d'Aumeries
Co-Development & Prog : Marc-Olivier Méhu
Technical & hardware support : Manuel Goepfert

Contact : metmap@orbifly.com




SOURCES & CREDITS :

   NOAA